Pagrindinis puslapis
METAR-TAF:

METAR-TAF

Oro uostai :

Ansbachas, Vokietija

platuma: 49-19N, ilguma: 010-38E, Aukštis: 467 m

Dabartinis oras

Ataskaita buvo paskelbta 1 valandą ir 2 minutes, ne 09:56 UTC
Vėjas 5 kt iš Rytų
Temperatūra 16°C
Drėgmė 39%
Slėgis 1021 hPa
Matomumas 10 km arba daugiau
Giedras dangus

METAR: ETEB 310956Z AUTO 09005KT 9999 CLR 16/02 A3014 RMK AO2 SLP218 T01560020 $

Laikas: 12:58 (10:58 UTC)

Prognozė

Ataskaita buvo paskelbta 25 valandos ir 58 minutes, ne 09:00 UTC
Prognozė galioja nuo 29 metu 09 UTC su 30 metu 15 UTC
Vėjas 9 kt iš Šiaurės Rytų
Matomumas 10 km arba daugiau
Išsisklaidę debesys ne aukštis 5000 ft
Tapsmas
nuo 29 metu 11 UTC su 29 metu 12 UTC
Vėjas 12 kt iš Šiaurės Rytų su gūsio iki 18 kt
Matomumas: 0209 m
Su prošvaistėmis ne aukštis 6500 ft

TAF: ETEB 290900Z 2909/3015 05009KT 9999 SCT050 QNH3024INS BECMG 2911/2912 04012G18KT 9999 BKN065 QNH3018INS TX17/2913Z TN07/3002Z LAST NO AMDS AFT 2916 NEXT 0209

Orai ataskaitas ir orų prognozės (METAR, TAF).

turimą stotys yra geltonos ir raudonos taškus žemėlapyje.

Perkelti pele per norėdami pamatyti stoties vardą.

Tada spustelėkite, norėdami matyti oro stebėjimo ir prognozės.

Norėdami pakeisti žemėlapį: spustelėkite ant žalios mygtukų su juodo kryžiaus žemyn,; žalią mygtuką su brūkšneliu, jei norite nutolinti; arba žalių rodyklių gretimoms žemėlapius.


METAR-TAF: